Aeroporto :
LOGIN :

Iscrizione | Disclaimer

   EN    FR    IT 

 










Sommario :    VFR   VFR Marginale   IFR   IFR Intensivo   IFR Molto Intensivo
Visibilità : 
Base nubi : 
>= 8 km
>= 3000ft
5 / 8 km
1000 / 3000 ft
1500m / 5 km
500 / 1000 ft
800 / 1500m
200 / 500 ft
< 800m
< 200 ft
Simboli :   Temporali  Nebbia  Neve Forte  Precipitazioni Forti  Vento > 20 kt
SIGMETs :   Varie  Temporali  Ghiacco  Turbolenza  Onda orograficha  Ceneri Vulcaniche







- Altitudine del aeroporto : 580 ft
- Carte del aeroporto


LFOA - Avord

ULTIMO METAR :
  • 270430Z AUTO 26006KT 9999 FEW025 OVC056 13/12 Q1014 TEMPO 2500 -RADZ BKN008

METARs OBSOLETI :
  • 270400Z AUTO 26007KT 9999 FEW024 OVC058 13/12 Q1014
  • 270330Z AUTO 27007KT 9999 SCT040 OVC056 14/12 Q1014
  • 270300Z AUTO 26007KT 9999 FEW029 SCT037 OVC054 14/12 Q1015
  • 270230Z AUTO 25006KT 9999 BKN037 OVC052 14/12 Q1015
  • 270200Z AUTO 26006KT 9999 SCT034 BKN041 OVC054 14/13 Q1015

TAF AMD TAF LFOA
Valido dal 27 a 04 ore il 28 a 03 ore UTC


270411Z 2704/2803 27007KT 9999 SCT040
TEMPO 2704/2709 -RA BKN012
PROB30
TEMPO 2704/2708 2500 -RADZ BKN008
BECMG 2709/2711 FEW020TCU
TEMPO 2711/2724 27010G20KT 4000 -SHRA BKN025TCU
Nessun NOTAM noto per questo aeroporto.



MetMap, La meteo Aeronautica in un colpo d'occhio ! - Copyright ORBIFLY Dicembre 2007 - Disclaimer

ORBIFLY MET'MAP TEAM :

Programmazione e sviluppo : Alexandra Zaïnal
Concezione e sviluppo : Baudouin d'Aumeries
Co-Programmazione e sviluppo : Marc-Olivier Méhu
Supporto tecnico e logistico : Manuel Goepfert
Aiuto per la traduzione : Arnaldo La Scala

Contatto : metmap@orbifly.com




FONTI E CREDITI :

   NOAA